Time;durP1;ratioP1;P1;durP2;ratioP2;P2;SDS_P1;SDS_P2;PMS_P1;PMS_P2;Temp;Humidity;BMP_temperature;BMP_pressure;BME280_temperature;BME280_humidity;BME280_pressure;Samples;Min_cycle;Max_cycle;Signal;HPM_P1;HPM_P2
2023/02/11 00:00:15;;;;;;;0.20;0.20;;;;;;;-5.50;70.67;98749.69;5004298;28;20501;-53
2023/02/11 00:02:42;;;;;;;0.20;0.20;;;;;;;-6.01;70.30;98652.22;5004498;28;20141;-52
2023/02/11 00:05:13;;;;;;;0.10;0.10;;;;;;;-5.77;70.99;98751.06;5004753;28;20046;-52
2023/02/11 00:07:39;;;;;;;0.10;0.10;;;;;;;-5.72;71.40;98748.50;5004059;28;20481;-52
2023/02/11 00:10:07;;;;;;;0.10;0.10;;;;;;;-5.64;70.83;98758.19;5019677;28;20575;-53
2023/02/11 00:12:36;;;;;;;0.10;0.10;;;;;;;-5.60;69.97;98757.53;5020149;28;20057;-55
2023/02/11 00:15:04;;;;;;;0.10;0.10;;;;;;;-5.78;70.49;98749.41;5004502;28;20507;-54
2023/02/11 00:17:31;;;;;;;0.17;0.17;;;;;;;-5.72;70.56;98759.31;5003776;28;20061;-53
2023/02/11 00:19:58;;;;;;;0.10;0.10;;;;;;;-5.81;70.90;98754.44;5004076;28;20049;-53
2023/02/11 00:22:25;;;;;;;0.10;0.10;;;;;;;-6.24;71.56;98679.00;5004332;28;20069;-55
2023/02/11 00:24:52;;;;;;;0.10;0.10;;;;;;;-5.62;71.40;98747.97;5004494;28;20050;-54
2023/02/11 00:27:18;;;;;;;0.13;0.13;;;;;;;-5.75;71.50;98748.97;5003350;28;20103;-54
2023/02/11 00:29:45;;;;;;;0.20;0.20;;;;;;;-5.75;71.84;98743.56;5004425;28;20520;-55
2023/02/11 00:32:12;;;;;;;0.10;0.10;;;;;;;-6.24;71.84;98668.22;5003461;28;20108;-54
2023/02/11 00:34:38;;;;;;;0.10;0.10;;;;;;;-6.08;71.83;98699.16;5002914;28;20151;-56
2023/02/11 00:37:05;;;;;;;0.10;0.10;;;;;;;-8.94;71.39;98230.91;5004338;28;20045;-52
2023/02/11 00:39:32;;;;;;;0.10;0.10;;;;;;;-5.70;71.54;98735.63;5003760;28;20488;-55
2023/02/11 00:41:58;;;;;;;0.10;0.10;;;;;;;-5.77;71.50;98734.06;5019323;28;20096;-52
2023/02/11 00:44:25;;;;;;;0.10;0.10;;;;;;;-5.70;70.80;98741.03;5004038;28;20335;-55
2023/02/11 00:46:52;;;;;;;0.20;0.20;;;;;;;-5.95;70.86;98716.03;5004368;28;20209;-54
2023/02/11 00:49:18;;;;;;;0.10;0.10;;;;;;;-6.27;70.88;98668.66;5004551;28;20049;-55
2023/02/11 00:51:45;;;;;;;0.20;0.20;;;;;;;-5.82;71.12;98737.47;5004597;28;20050;-54
2023/02/11 00:54:11;;;;;;;0.20;0.20;;;;;;;-5.90;71.18;98720.75;5004056;28;20153;-55
2023/02/11 00:56:38;;;;;;;0.10;0.10;;;;;;;-6.03;71.32;98702.00;5004310;28;20811;-54
2023/02/11 00:59:05;;;;;;;0.20;0.20;;;;;;;-6.03;71.48;98713.63;5003902;28;20096;-53
2023/02/11 01:01:31;;;;;;;0.15;0.15;;;;;;;-6.26;71.32;98675.72;5000990;28;20113;-54
2023/02/11 01:03:58;;;;;;;0.10;0.10;;;;;;;-6.72;71.47;98600.72;4984833;28;20050;-52
2023/02/11 01:06:24;;;;;;;0.10;0.10;;;;;;;-6.01;71.42;98727.72;4989938;28;20117;-52
2023/02/11 01:08:51;;;;;;;0.10;0.10;;;;;;;-5.95;71.61;98732.22;5004297;28;20054;-53
2023/02/11 01:11:19;;;;;;;0.10;0.10;;;;;;;-6.00;71.98;98728.53;5003977;28;20054;-53
2023/02/11 01:13:47;;;;;;;0.10;0.10;;;;;;;-6.04;71.90;98706.59;5004371;28;20517;-52
2023/02/11 01:16:15;;;;;;;0.10;0.10;;;;;;;-8.03;73.40;98501.44;5004391;28;20050;-52
2023/02/11 01:18:43;;;;;;;0.10;0.10;;;;;;;-6.75;73.52;98654.25;5003720;28;20060;-55
2023/02/11 01:21:10;;;;;;;0.10;0.10;;;;;;;-6.25;73.38;98712.41;5003625;28;20097;-55
2023/02/11 01:23:37;;;;;;;0.10;0.10;;;;;;;-6.05;73.04;98728.41;5004436;28;20104;-55
2023/02/11 01:26:04;;;;;;;0.10;0.10;;;;;;;-6.07;72.96;98728.63;4999915;28;20080;-54
2023/02/11 01:28:32;;;;;;;0.10;0.10;;;;;;;-6.17;72.92;98728.31;5003315;28;20493;-53
2023/02/11 01:31:00;;;;;;;0.10;0.10;;;;;;;-6.51;72.82;98659.59;4983901;28;20062;-55
2023/02/11 01:33:27;;;;;;;0.10;0.10;;;;;;;-6.65;71.82;98606.88;4999096;28;20631;-54
2023/02/11 01:35:54;;;;;;;0.10;0.10;;;;;;;-7.24;72.29;98542.00;5003928;28;20604;-54
2023/02/11 01:38:24;;;;;;;0.10;0.10;;;;;;;-6.10;72.79;98720.94;5004050;28;20240;-52
2023/02/11 01:41:02;;;;;;;0.10;0.10;;;;;;;-6.03;72.98;98724.41;5003680;28;20061;-52
2023/02/11 01:43:36;;;;;;;0.10;0.10;;;;;;;-6.03;72.67;98708.22;5003443;28;20054;-52
2023/02/11 01:46:34;;;;;;;0.10;0.10;;;;;;;-6.05;72.27;98714.91;5002966;28;20531;-55
2023/02/11 01:49:08;;;;;;;0.10;0.10;;;;;;;-6.10;72.19;98710.16;5003953;28;20132;-54
2023/02/11 01:51:41;;;;;;;0.10;0.10;;;;;;;-6.14;72.15;98706.28;5006258;28;20046;-52
2023/02/11 02:00:08;;;;;;;0.10;0.10;;;;;;;-6.45;74.14;98725.25;5007495;28;20073;-55
2023/02/11 02:02:59;;;;;;;0.10;0.10;;;;;;;-6.44;74.22;98711.56;5006908;28;20053;-52
2023/02/11 02:05:38;;;;;;;0.10;0.10;;;;;;;-6.38;73.44;98715.22;5022122;28;20111;-53
2023/02/11 02:08:20;;;;;;;0.10;0.10;;;;;;;-6.88;73.88;98659.75;5022714;28;20083;-54
2023/02/11 02:10:52;;;;;;;0.10;0.10;;;;;;;-6.42;73.90;98719.44;5007004;28;20128;-54
2023/02/11 02:13:20;;;;;;;0.10;0.10;;;;;;;-6.42;74.18;98731.00;5006370;28;20480;-56
2023/02/11 02:15:52;;;;;;;0.10;0.10;;;;;;;-6.45;73.62;98714.47;5006703;28;20054;-56
2023/02/11 02:18:28;;;;;;;;;;;;;;;-9.92;73.14;98150.25;5006020;28;20089;-52
2023/02/11 02:21:29;;;;;;;0.10;0.10;;;;;;;-6.65;74.65;98724.59;5006107;28;19964;-51
2023/02/11 02:24:14;;;;;;;0.10;0.10;;;;;;;-6.60;74.26;98724.75;5005855;28;20077;-55
2023/02/11 02:27:11;;;;;;;0.10;0.10;;;;;;;-6.61;73.76;98725.81;5004342;28;20124;-54
2023/02/11 02:30:07;;;;;;;0.10;0.10;;;;;;;-7.74;74.54;98551.09;5006831;28;20066;-52
2023/02/11 02:32:34;;;;;;;0.10;0.10;;;;;;;-6.73;74.89;98714.91;4995309;28;20104;-52
2023/02/11 02:35:01;;;;;;;0.10;0.10;;;;;;;-6.60;74.77;98722.91;5021606;28;20058;-54
2023/02/11 02:37:37;;;;;;;0.10;0.10;;;;;;;-6.58;74.62;98725.38;5006539;28;20108;-54
2023/02/11 02:40:11;;;;;;;0.10;0.10;;;;;;;-6.77;74.11;98689.47;5006092;28;20135;-51
2023/02/11 02:42:39;;;;;;;0.10;0.10;;;;;;;-6.51;73.72;98731.50;5006653;28;20054;-52
2023/02/11 02:45:08;;;;;;;0.10;0.10;;;;;;;-6.61;73.73;98704.25;5005432;28;20068;-54
2023/02/11 02:47:34;;;;;;;0.10;0.10;;;;;;;-6.46;73.97;98712.81;5005773;28;20060;-53
2023/02/11 02:50:03;;;;;;;0.10;0.10;;;;;;;-6.41;72.95;98721.91;5005999;28;20049;-53
2023/02/11 02:52:48;;;;;;;0.10;0.10;;;;;;;-6.36;72.86;98713.97;5005963;28;20051;-54
2023/02/11 02:55:32;;;;;;;0.10;0.10;;;;;;;-6.51;72.94;98720.72;5005583;28;20136;-51
2023/02/11 02:58:26;;;;;;;0.10;0.10;;;;;;;-6.54;73.75;98715.78;5005197;28;20077;-54
2023/02/11 03:01:16;;;;;;;0.10;0.10;;;;;;;-6.53;73.86;98717.47;5005247;28;20050;-52
2023/02/11 03:04:12;;;;;;;0.10;0.10;;;;;;;-6.63;73.85;98722.50;5006212;28;20132;-52
2023/02/11 03:06:41;;;;;;;0.10;0.10;;;;;;;-6.58;74.12;98728.06;4986774;28;20133;-52
2023/02/11 03:09:18;;;;;;;0.10;0.10;;;;;;;-6.59;73.78;98718.34;4992719;28;20104;-54
2023/02/11 03:11:45;;;;;;;0.10;0.10;;;;;;;-6.88;73.92;98676.72;5005676;28;20956;-53
2023/02/11 03:14:16;;;;;;;0.10;0.10;;;;;;;-6.57;73.66;98716.22;5008036;28;20158;-55
2023/02/11 03:16:44;;;;;;;0.10;0.10;;;;;;;-6.62;73.55;98718.75;5007935;28;20112;-54
2023/02/11 03:19:27;;;;;;;0.10;0.10;;;;;;;-6.59;73.74;98712.97;5005237;28;20042;-51
2023/02/11 03:21:55;;;;;;;0.10;0.10;;;;;;;-6.79;73.95;98690.72;5005775;28;20360;-57
2023/02/11 03:24:34;;;;;;;0.10;0.10;;;;;;;-6.71;73.98;98709.31;5005506;28;20159;-51
2023/02/11 03:27:09;;;;;;;0.10;0.10;;;;;;;-6.71;74.27;98714.69;5005447;28;20092;-51
2023/02/11 03:29:43;;;;;;;0.10;0.10;;;;;;;-6.62;74.56;98707.97;5005720;28;20509;-53
2023/02/11 03:32:16;;;;;;;0.10;0.10;;;;;;;-6.65;74.62;98705.72;5004924;28;20042;-54
2023/02/11 03:34:53;;;;;;;0.10;0.10;;;;;;;-6.51;74.12;98709.94;5004249;28;20140;-52
2023/02/11 03:37:41;;;;;;;0.10;0.10;;;;;;;-6.63;73.69;98711.72;5004133;28;20509;-51
2023/02/11 03:40:13;;;;;;;0.10;0.10;;;;;;;-6.68;73.70;98703.47;5005145;28;21255;-53
2023/02/11 03:42:53;;;;;;;;;;;;;;;-6.74;74.14;98702.50;5004731;28;20061;-54
2023/02/11 03:45:22;;;;;;;0.10;0.10;;;;;;;-7.21;76.02;98680.69;5003949;28;19961;-53
2023/02/11 03:47:54;;;;;;;0.10;0.10;;;;;;;-7.05;76.16;98699.03;5004975;28;20081;-52
2023/02/11 03:50:22;;;;;;;0.10;0.10;;;;;;;-7.04;75.98;98704.19;5003496;28;20668;-54
2023/02/11 03:52:50;;;;;;;0.10;0.10;;;;;;;-7.15;75.58;98698.66;5005042;28;20053;-54
2023/02/11 03:55:19;;;;;;;0.10;0.10;;;;;;;-7.18;75.00;98691.03;5004580;28;20061;-54
2023/02/11 03:57:46;;;;;;;0.10;0.10;;;;;;;-7.39;75.08;98702.97;5002931;28;20111;-55
2023/02/11 04:00:14;;;;;;;0.10;0.10;;;;;;;-7.26;74.84;98693.97;5003460;28;20433;-54
2023/02/11 04:02:41;;;;;;;0.10;0.10;;;;;;;-7.52;74.31;98621.53;5005141;28;20497;-52
2023/02/11 04:05:11;;;;;;;0.10;0.10;;;;;;;-7.12;74.57;98674.00;5004898;28;20103;-54
2023/02/11 04:07:38;;;;;;;0.10;0.10;;;;;;;-7.05;74.32;98682.88;5004492;28;20126;-51
2023/02/11 04:10:05;;;;;;;0.10;0.10;;;;;;;-7.45;74.36;98641.94;5004492;28;20077;-54
2023/02/11 04:12:31;;;;;;;0.10;0.10;;;;;;;-7.22;74.59;98668.31;5004015;28;20050;-52
2023/02/11 04:14:58;;;;;;;0.10;0.10;;;;;;;-7.06;75.19;98683.91;5004268;28;20137;-54
2023/02/11 04:17:25;;;;;;;0.10;0.10;;;;;;;-6.96;74.82;98692.31;5003355;28;20481;-52
2023/02/11 04:19:51;;;;;;;0.10;0.10;;;;;;;-7.67;74.96;98604.84;5004292;28;20050;-54
2023/02/11 04:22:18;;;;;;;0.10;0.10;;;;;;;-7.00;74.92;98696.50;5004956;28;20146;-54
2023/02/11 04:24:44;;;;;;;0.10;0.10;;;;;;;-6.92;74.73;98696.22;5004400;28;20441;-54
2023/02/11 04:27:11;;;;;;;0.10;0.10;;;;;;;-7.61;74.54;98614.72;5005007;28;20497;-55
2023/02/11 04:29:38;;;;;;;0.10;0.10;;;;;;;-6.99;74.86;98701.66;5004690;28;20054;-52
2023/02/11 04:32:04;;;;;;;0.10;0.10;;;;;;;-7.05;74.63;98696.34;5004050;28;20046;-55
2023/02/11 04:34:32;;;;;;;0.10;0.10;;;;;;;-7.13;74.07;98715.44;5004646;28;20060;-51
2023/02/11 04:36:58;;;;;;;0.10;0.10;;;;;;;-7.49;74.39;98645.28;5004618;28;20224;-54
2023/02/11 04:39:25;;;;;;;0.10;0.10;;;;;;;-7.12;74.35;98695.53;5004389;28;20050;-52
2023/02/11 04:41:52;;;;;;;0.10;0.10;;;;;;;-7.09;74.05;98689.72;5003196;28;20120;-52
2023/02/11 04:44:18;;;;;;;0.10;0.10;;;;;;;-7.54;74.26;98615.53;5004451;28;20128;-53
2023/02/11 04:46:45;;;;;;;0.10;0.10;;;;;;;-7.13;74.51;98683.13;5004692;28;20081;-52
2023/02/11 04:49:14;;;;;;;0.10;0.10;;;;;;;-7.50;74.93;98616.72;5003951;28;20598;-54
2023/02/11 04:51:41;;;;;;;0.10;0.10;;;;;;;-7.08;74.64;98680.63;5004204;28;20064;-54
2023/02/11 04:54:07;;;;;;;0.10;0.10;;;;;;;-7.39;74.59;98624.09;5003861;28;20482;-54
2023/02/11 04:56:34;;;;;;;0.10;0.10;;;;;;;-7.14;75.18;98682.31;5004450;28;20046;-52
2023/02/11 04:59:01;;;;;;;0.10;0.10;;;;;;;-7.12;75.01;98669.47;5003917;28;20045;-52
2023/02/11 05:01:27;;;;;;;0.10;0.10;;;;;;;-7.37;74.63;98632.78;5004257;28;20156;-52
2023/02/11 05:03:54;;;;;;;0.10;0.10;;;;;;;-7.05;74.56;98674.78;5004158;28;20163;-52
2023/02/11 05:06:21;;;;;;;0.10;0.10;;;;;;;-7.06;74.57;98678.50;5003863;28;20064;-52
2023/02/11 05:08:48;;;;;;;0.10;0.10;;;;;;;-7.09;75.23;98673.56;5003672;28;20104;-52
2023/02/11 05:11:19;;;;;;;0.10;0.10;;;;;;;-7.23;76.06;98677.41;5003573;28;20054;-52
2023/02/11 05:13:47;;;;;;;0.10;0.10;;;;;;;-7.84;76.12;98562.34;5003973;28;20066;-53
2023/02/11 05:16:14;;;;;;;0.10;0.10;;;;;;;-7.19;75.90;98662.47;5002781;28;20057;-52
2023/02/11 05:18:42;;;;;;;0.10;0.10;;;;;;;-7.41;76.03;98627.00;5002576;28;20099;-53
2023/02/11 05:21:13;;;;;;;0.10;0.10;;;;;;;-7.07;75.26;98663.41;5004076;28;20082;-54
2023/02/11 05:23:40;;;;;;;0.10;0.10;;;;;;;-7.09;75.06;98657.41;5003741;28;20116;-52
2023/02/11 05:26:07;;;;;;;0.10;0.10;;;;;;;-7.79;75.10;98558.19;5005914;28;20089;-52
2023/02/11 05:28:34;;;;;;;0.10;0.10;;;;;;;-7.54;75.19;98597.53;5007740;28;20089;-53
2023/02/11 05:31:01;;;;;;;0.10;0.10;;;;;;;-7.67;75.39;98594.09;5007620;28;20045;-53
2023/02/11 05:33:28;;;;;;;0.10;0.10;;;;;;;-7.11;75.42;98667.59;5007934;28;20065;-53
2023/02/11 05:35:59;;;;;;;0.10;0.10;;;;;;;-7.02;75.19;98671.66;5007922;28;20434;-54
2023/02/11 05:38:26;;;;;;;0.10;0.10;;;;;;;-7.62;74.40;98605.03;5007147;28;20081;-52
2023/02/11 05:40:53;;;;;;;0.10;0.10;;;;;;;-7.07;74.21;98649.94;5007456;28;20057;-53
2023/02/11 05:43:20;;;;;;;0.10;0.10;;;;;;;-7.68;74.54;98549.41;5007465;28;20089;-52
2023/02/11 05:45:47;;;;;;;0.10;0.10;;;;;;;-6.95;75.31;98645.50;5007545;28;20137;-52
2023/02/11 05:48:14;;;;;;;0.10;0.10;;;;;;;-6.62;74.33;98670.25;5007456;28;20050;-54
2023/02/11 05:50:41;;;;;;;0.10;0.10;;;;;;;-6.88;73.86;98632.81;5007263;28;20108;-52
2023/02/11 05:53:08;;;;;;;0.10;0.10;;;;;;;-6.57;73.68;98651.56;4989399;28;20576;-54
2023/02/11 05:55:35;;;;;;;0.10;0.10;;;;;;;-6.64;73.90;98651.63;4986350;28;20508;-53
2023/02/11 05:58:02;;;;;;;0.10;0.10;;;;;;;-6.37;73.71;98696.13;4992393;28;20046;-53
2023/02/11 06:00:29;;;;;;;0.10;0.10;;;;;;;-6.61;73.47;98626.94;5006774;28;20181;-55
2023/02/11 06:02:56;;;;;;;0.10;0.10;;;;;;;-6.07;72.91;98680.09;5007295;28;20366;-54
2023/02/11 06:05:23;;;;;;;0.10;0.10;;;;;;;-5.93;72.90;98673.47;5007001;28;20424;-52
2023/02/11 06:07:50;;;;;;;0.10;0.10;;;;;;;-5.72;71.96;98678.34;5007532;28;20092;-53
2023/02/11 06:10:16;;;;;;;0.10;0.10;;;;;;;-5.70;71.53;98676.25;5006718;28;20053;-52
2023/02/11 06:12:43;;;;;;;0.10;0.10;;;;;;;-5.55;71.71;98679.41;5007234;28;20261;-55
2023/02/11 06:15:10;;;;;;;0.10;0.10;;;;;;;-5.42;71.04;98681.91;5005550;28;20088;-55
2023/02/11 06:17:36;;;;;;;0.20;0.20;;;;;;;-5.22;70.61;98668.13;5007699;28;20073;-55
2023/02/11 06:20:05;;;;;;;0.13;0.13;;;;;;;-5.02;69.88;98666.78;5005211;28;20116;-56
2023/02/11 06:22:32;;;;;;;0.10;0.10;;;;;;;-5.07;69.56;98660.41;5006708;28;20111;-56
2023/02/11 06:25:00;;;;;;;0.10;0.10;;;;;;;-5.25;69.92;98636.19;5006979;28;20049;-56
2023/02/11 06:27:28;;;;;;;0.10;0.10;;;;;;;-5.33;69.89;98694.06;5006945;28;20054;-53
2023/02/11 06:29:55;;;;;;;0.13;0.13;;;;;;;-4.81;69.81;98660.84;5006943;28;20410;-55
2023/02/11 06:32:21;;;;;;;0.10;0.10;;;;;;;-4.62;69.26;98658.84;5006881;28;20100;-56
2023/02/11 06:35:08;;;;;;;0.20;0.20;;;;;;;-4.51;69.28;98654.50;4986770;28;20051;-54
2023/02/11 06:37:37;;;;;;;0.20;0.20;;;;;;;-4.22;69.13;98669.78;4986394;28;20120;-54
2023/02/11 06:40:04;;;;;;;0.17;0.17;;;;;;;-4.10;67.56;98651.63;4986884;28;20077;-53
2023/02/11 06:42:31;;;;;;;0.20;0.20;;;;;;;-3.89;67.86;98651.03;4987036;28;20057;-54
2023/02/11 06:44:57;;;;;;;0.20;0.20;;;;;;;-3.71;66.65;98650.84;4987066;28;20572;-55
2023/02/11 06:47:24;;;;;;;0.20;0.20;;;;;;;-3.54;64.79;98630.09;4987184;28;20059;-56
2023/02/11 06:49:51;;;;;;;0.20;0.20;;;;;;;-3.38;64.99;98623.88;4998246;28;20133;-53
2023/02/11 06:52:17;;;;;;;0.20;0.20;;;;;;;-3.14;63.64;98650.63;5006605;28;20540;-55
2023/02/11 06:54:44;;;;;;;0.20;0.20;;;;;;;-3.15;63.23;98648.16;5004555;28;20590;-53
2023/02/11 06:57:10;;;;;;;0.20;0.20;;;;;;;-3.13;64.63;98643.31;5006441;28;20193;-53
2023/02/11 06:59:37;;;;;;;0.25;0.25;;;;;;;-2.95;63.38;98639.53;5005778;28;20529;-55
2023/02/11 07:02:04;;;;;;;0.20;0.20;;;;;;;-2.89;62.98;98623.13;5005264;28;20161;-57
2023/02/11 07:04:30;;;;;;;0.20;0.20;;;;;;;-2.58;62.18;98636.13;5016164;28;20081;-55
2023/02/11 07:06:57;;;;;;;0.20;0.20;;;;;;;-2.98;61.97;98543.28;5015818;28;20053;-57
2023/02/11 07:09:24;;;;;;;0.25;0.25;;;;;;;-2.39;61.52;98613.09;5014447;28;20053;-56
2023/02/11 07:11:50;;;;;;;0.20;0.20;;;;;;;-4.51;60.61;98233.59;5003822;28;20123;-55
2023/02/11 07:14:17;;;;;;;0.30;0.30;;;;;;;-1.87;61.00;98622.47;5015447;28;20053;-58
2023/02/11 07:16:44;;;;;;;0.30;0.30;;;;;;;-1.57;59.02;98620.13;4996682;28;20054;-54
2023/02/11 07:19:10;;;;;;;0.25;0.25;;;;;;;-1.35;57.99;98619.28;4996089;28;20077;-55
2023/02/11 07:21:37;;;;;;;0.25;0.25;;;;;;;-1.17;57.40;98618.94;5023110;28;20638;-54
2023/02/11 07:24:08;;;;;;;0.30;0.30;;;;;;;-1.14;57.00;98621.97;5007847;28;20061;-58
2023/02/11 07:26:36;;;;;;;;;;;;;;;-0.89;57.13;98615.94;4986512;28;20085;-57
2023/02/11 07:29:03;;;;;;;0.30;0.30;;;;;;;-2.28;56.97;98386.94;4991376;28;19925;-62
2023/02/11 07:31:30;;;;;;;0.20;0.20;;;;;;;-0.70;56.34;98611.75;4999813;28;20053;-57
2023/02/11 07:33:59;;;;;;;0.30;0.30;;;;;;;-0.54;55.64;98606.13;5000598;28;20493;-56
2023/02/11 07:36:28;;;;;;;0.30;0.30;;;;;;;-0.40;55.62;98587.47;5005316;28;20497;-57
2023/02/11 07:38:55;;;;;;;0.30;0.30;;;;;;;-0.16;55.26;98602.31;5000377;28;20045;-58
2023/02/11 07:41:23;;;;;;;0.30;0.30;;;;;;;-0.07;54.88;98576.22;5005302;28;20830;-56
2023/02/11 07:43:50;;;;;;;0.30;0.30;;;;;;;-0.29;57.64;98597.34;5001688;28;20488;-59
2023/02/11 07:46:21;;;;;;;0.30;0.30;;;;;;;-1.46;58.49;98421.88;5000228;28;20480;-59
2023/02/11 07:48:47;;;;;;;0.22;0.22;;;;;;;-0.75;61.14;98604.34;5004456;28;20240;-59
2023/02/11 07:51:23;;;;;;;0.30;0.30;;;;;;;-1.31;61.29;98544.31;4992780;28;20073;-59
2023/02/11 07:53:51;;;;;;;0.30;0.30;;;;;;;-0.59;59.67;98586.25;4998190;28;20045;-58
2023/02/11 07:56:19;;;;;;;0.30;0.30;;;;;;;0.07;57.24;98607.34;5003534;28;20045;-58
2023/02/11 07:58:47;;;;;;;0.30;0.30;;;;;;;0.20;57.04;98601.41;5000232;28;20125;-58
2023/02/11 08:01:19;;;;;;;0.30;0.30;;;;;;;0.45;55.69;98587.06;5002199;28;20054;-57
2023/02/11 08:03:45;;;;;;;0.30;0.30;;;;;;;0.77;55.03;98604.88;5001793;28;20475;-56
2023/02/11 08:06:15;;;;;;;0.30;0.30;;;;;;;0.77;54.58;98563.97;5017609;28;20072;-56
2023/02/11 08:08:42;;;;;;;0.30;0.30;;;;;;;1.15;54.00;98604.41;5016437;28;20057;-56
2023/02/11 08:11:12;;;;;;;0.30;0.30;;;;;;;1.13;53.79;98573.84;4986052;28;20496;-56
2023/02/11 08:13:40;;;;;;;0.32;0.32;;;;;;;1.49;52.97;98600.03;5018600;28;20058;-57
2023/02/11 08:16:07;;;;;;;0.40;0.40;;;;;;;1.68;51.97;98602.19;5011974;28;20061;-57
2023/02/11 08:18:35;;;;;;;0.30;0.30;;;;;;;0.59;53.30;98582.72;5017927;28;20069;-57
2023/02/11 08:21:06;;;;;;;0.30;0.30;;;;;;;-0.16;54.78;98487.97;5008517;28;20052;-57
2023/02/11 08:23:37;;;;;;;0.30;0.30;;;;;;;0.51;55.65;98596.88;5019626;28;20517;-57
2023/02/11 08:26:06;;;;;;;0.30;0.30;;;;;;;0.24;56.56;98602.50;5019989;28;20089;-59
2023/02/11 08:28:37;;;;;;;0.30;0.30;;;;;;;0.49;55.95;98620.88;5015773;28;20049;-57
2023/02/11 08:31:15;;;;;;;0.38;0.38;;;;;;;1.08;55.81;98560.19;5003013;28;20565;-58
2023/02/11 08:33:42;;;;;;;0.30;0.30;;;;;;;1.72;53.99;98586.91;5007058;28;20128;-58
2023/02/11 08:36:10;;;;;;;0.30;0.30;;;;;;;2.13;52.84;98582.97;5019211;28;20061;-56
2023/02/11 08:38:37;;;;;;;0.40;0.40;;;;;;;1.85;50.94;98483.31;5019245;28;20331;-56
2023/02/11 08:41:03;;;;;;;0.32;0.32;;;;;;;2.65;47.72;98575.06;5004205;28;20081;-57
2023/02/11 08:43:32;;;;;;;0.40;0.40;;;;;;;2.79;45.89;98578.81;4992171;28;20156;-54
2023/02/11 08:45:59;;;;;;;0.40;0.40;;;;;;;3.11;45.76;98573.69;4998627;28;20511;-56
2023/02/11 08:48:28;;;;;;;0.40;0.40;;;;;;;3.19;46.29;98575.81;4985195;28;20060;-57
2023/02/11 08:50:55;;;;;;;0.40;0.40;;;;;;;3.05;46.27;98492.72;4996730;28;20529;-58
2023/02/11 08:53:22;;;;;;;0.40;0.40;;;;;;;3.74;45.39;98563.56;4998887;28;20493;-57
2023/02/11 08:55:51;;;;;;;0.40;0.40;;;;;;;3.71;44.61;98578.66;5005054;28;20053;-58
2023/02/11 08:58:18;;;;;;;0.50;0.50;;;;;;;4.33;42.15;98574.97;5010176;28;20042;-56
2023/02/11 09:00:46;;;;;;;0.40;0.40;;;;;;;3.87;41.26;98495.16;5001004;28;20046;-58
2023/02/11 09:03:15;;;;;;;0.50;0.50;;;;;;;4.66;38.31;98569.31;5001483;28;20516;-60
2023/02/11 09:05:48;;;;;;;0.50;0.50;;;;;;;4.88;38.14;98560.50;5007202;28;20053;-58
2023/02/11 09:08:16;;;;;;;0.50;0.50;;;;;;;4.66;37.26;98508.94;4991423;28;20065;-60
2023/02/11 09:10:42;;;;;;;0.40;0.40;;;;;;;4.95;37.76;98557.41;5000898;28;20509;-59
2023/02/11 09:13:09;;;;;;;0.50;0.50;;;;;;;5.08;37.29;98551.13;5000899;28;20518;-59
2023/02/11 09:15:36;;;;;;;0.50;0.50;;;;;;;4.76;37.05;98490.69;5000887;28;20515;-56
2023/02/11 09:18:04;;;;;;;0.52;0.52;;;;;;;4.99;35.95;98463.16;4994834;28;20050;-58
2023/02/11 09:20:31;;;;;;;0.50;0.50;;;;;;;4.84;34.99;98418.66;4997703;28;20062;-56
2023/02/11 09:22:58;;;;;;;0.50;0.50;;;;;;;5.74;33.39;98535.19;5001754;28;20053;-58
2023/02/11 09:25:25;;;;;;;0.50;0.50;;;;;;;5.83;33.11;98533.41;5012003;28;20057;-58
2023/02/11 09:27:52;;;;;;;0.52;0.52;;;;;;;5.56;34.37;98450.88;5002492;28;20115;-58
2023/02/11 09:30:19;;;;;;;0.57;0.57;;;;;;;6.27;33.38;98511.63;4999978;28;20060;-57
2023/02/11 09:32:46;;;;;;;0.60;0.60;;;;;;;6.47;32.93;98510.38;5000009;28;20062;-59
2023/02/11 09:35:13;;;;;;;0.55;0.55;;;;;;;6.56;31.48;98503.81;5005821;28;20058;-57
2023/02/11 09:37:40;;;;;;;0.60;0.60;;;;;;;6.40;31.63;98450.25;5017482;28;20482;-62
2023/02/11 09:40:07;;;;;;;0.70;0.70;;;;;;;6.72;31.79;98474.84;5006811;28;20050;-59
2023/02/11 09:42:49;;;;;;;0.70;0.70;;;;;;;7.01;31.83;98483.53;5001530;28;20049;-57
2023/02/11 09:45:20;;;;;;;0.70;0.70;;;;;;;7.08;30.20;98489.38;5016141;28;20104;-57
2023/02/11 09:47:53;;;;;;;0.70;0.70;;;;;;;6.94;30.99;98479.56;5016870;28;20073;-58
2023/02/11 09:50:29;;;;;;;0.70;0.70;;;;;;;6.92;30.45;98443.25;5002273;28;20133;-56
2023/02/11 09:53:14;;;;;;;0.60;0.60;;;;;;;7.29;31.15;98468.47;5002850;28;20104;-55
2023/02/11 09:55:45;;;;;;;0.70;0.70;;;;;;;7.31;31.73;98471.75;5010977;28;20082;-58
2023/02/11 09:58:15;;;;;;;0.65;0.65;;;;;;;7.00;30.71;98421.25;5002874;28;20053;-57
2023/02/11 10:00:55;;;;;;;0.60;0.60;;;;;;;6.90;29.57;98377.47;5001324;28;20139;-56
2023/02/11 10:03:56;;;;;;;0.60;0.60;;;;;;;7.56;29.49;98451.78;5004546;28;20138;-54
2023/02/11 10:06:38;;;;;;;0.70;0.70;;;;;;;7.58;30.25;98433.00;4984111;28;20484;-57
2023/02/11 10:09:24;;;;;;;0.60;0.60;;;;;;;7.59;30.64;98434.59;5001703;28;20104;-58
2023/02/11 10:12:00;;;;;;;0.70;0.70;;;;;;;7.57;29.69;98430.56;5004674;28;20161;-55
2023/02/11 10:14:52;;;;;;;0.63;0.63;;;;;;;7.35;30.23;98420.34;5005480;28;20444;-57
2023/02/11 10:17:19;;;;;;;0.60;0.60;;;;;;;7.33;30.92;98414.34;4995719;28;20050;-53
2023/02/11 10:19:54;;;;;;;0.65;0.65;;;;;;;7.45;30.13;98411.84;5011612;28;20080;-55
2023/02/11 10:22:33;;;;;;;0.60;0.60;;;;;;;7.40;30.13;98409.19;4991716;28;20058;-59
2023/02/11 10:25:22;;;;;;;0.70;0.70;;;;;;;6.86;30.06;98404.00;5009873;28;20114;-55
2023/02/11 10:27:51;;;;;;;0.60;0.60;;;;;;;6.99;29.97;98405.88;5009386;28;20050;-58
2023/02/11 10:30:20;;;;;;;0.60;0.60;;;;;;;7.33;30.63;98392.28;5003960;28;20104;-57
2023/02/11 10:33:03;;;;;;;0.60;0.60;;;;;;;7.39;30.26;98368.19;5023988;28;20054;-57
2023/02/11 10:35:31;;;;;;;0.60;0.60;;;;;;;7.52;30.25;98384.59;5001581;28;20066;-58
2023/02/11 10:37:58;;;;;;;0.60;0.60;;;;;;;7.73;29.46;98377.41;4994299;28;20522;-58
2023/02/11 10:40:27;;;;;;;0.70;0.70;;;;;;;7.41;29.77;98317.09;5001374;28;20108;-56
2023/02/11 10:42:59;;;;;;;0.70;0.70;;;;;;;8.12;29.44;98375.72;5014269;28;20504;-55
2023/02/11 10:45:35;;;;;;;0.70;0.70;;;;;;;8.35;29.48;98368.94;5024954;28;20134;-56
2023/02/11 10:48:26;;;;;;;0.70;0.70;;;;;;;8.02;28.02;98359.44;5026171;28;20140;-56
2023/02/11 10:51:26;;;;;;;0.70;0.70;;;;;;;7.72;28.55;98359.22;5008879;28;20326;-58
2023/02/11 10:54:07;;;;;;;0.70;0.70;;;;;;;7.23;28.17;98348.50;4985226;28;20069;-55
2023/02/11 10:56:36;;;;;;;0.60;0.60;;;;;;;6.53;29.29;98355.00;4987519;28;20485;-54
2023/02/11 10:59:27;;;;;;;0.60;0.60;;;;;;;7.04;29.60;98345.13;4986508;28;20050;-56
2023/02/11 11:02:06;;;;;;;0.60;0.60;;;;;;;5.49;28.41;98030.00;4986937;28;20580;-60
2023/02/11 11:04:38;;;;;;;0.60;0.60;;;;;;;7.37;28.55;98332.66;4986470;28;20057;-54
2023/02/11 11:07:15;;;;;;;0.60;0.60;;;;;;;6.64;28.70;98299.38;4987006;28;20149;-57
2023/02/11 11:10:01;;;;;;;0.60;0.60;;;;;;;6.83;28.69;98293.66;4986237;28;20085;-55
2023/02/11 11:12:33;;;;;;;0.60;0.60;;;;;;;7.57;28.28;98320.25;4986456;28;20065;-56
2023/02/11 11:15:12;;;;;;;0.70;0.70;;;;;;;7.83;27.89;98312.03;4986446;28;20047;-56
2023/02/11 11:17:39;;;;;;;0.60;0.60;;;;;;;7.81;28.21;98311.56;4986660;28;20073;-54
2023/02/11 11:20:32;;;;;;;0.70;0.70;;;;;;;7.99;28.58;98288.34;4986635;28;20403;-56
2023/02/11 11:23:16;;;;;;;0.70;0.70;;;;;;;8.44;28.25;98306.28;4984857;28;20576;-56
2023/02/11 11:25:57;;;;;;;0.70;0.70;;;;;;;8.67;27.42;98300.25;4986286;28;20653;-56
2023/02/11 11:28:26;;;;;;;0.70;0.70;;;;;;;8.88;27.69;98295.63;4986226;28;20046;-56
2023/02/11 11:30:55;;;;;;;0.70;0.70;;;;;;;9.09;27.61;98295.72;4986763;28;20056;-58
2023/02/11 11:33:27;;;;;;;0.70;0.70;;;;;;;9.28;27.07;98276.81;4986265;28;20142;-57
2023/02/11 11:36:01;;;;;;;0.80;0.80;;;;;;;9.37;27.00;98274.84;5001211;28;20089;-56
2023/02/11 11:38:30;;;;;;;0.70;0.70;;;;;;;9.16;26.67;98207.59;4986527;28;20529;-57
2023/02/11 11:41:32;;;;;;;0.70;0.70;;;;;;;9.48;26.97;98265.00;4985886;28;20088;-56
2023/02/11 11:44:23;;;;;;;0.80;0.80;;;;;;;9.42;26.46;98257.25;4963898;28;20153;-55
2023/02/11 11:47:06;;;;;;;0.70;0.70;;;;;;;9.07;24.64;98253.81;4985771;28;20113;-57
2023/02/11 11:49:38;;;;;;;0.75;0.75;;;;;;;8.88;25.16;98256.16;4986518;28;20058;-57
2023/02/11 11:52:11;;;;;;;0.80;0.80;;;;;;;8.78;25.53;98249.03;4984504;28;20116;-59
2023/02/11 11:54:40;;;;;;;0.80;0.80;;;;;;;8.74;25.32;98239.75;5000630;28;20058;-58
2023/02/11 11:57:16;;;;;;;0.70;0.70;;;;;;;7.94;25.77;98191.94;4985464;28;20457;-56
2023/02/11 11:59:43;;;;;;;0.70;0.70;;;;;;;7.92;25.85;98238.38;4988921;28;20540;-56